createdAt,value
2022-08-17T00:01:00.798Z,5.18
2022-08-17T00:02:26.167Z,5.05
2022-08-17T00:03:43.652Z,5.70
2022-08-17T00:04:50.572Z,5.72
2022-08-17T00:06:12.453Z,5.22
2022-08-17T00:07:16.908Z,5.47
2022-08-17T00:08:26.690Z,5.90
2022-08-17T00:09:30.612Z,5.45
2022-08-17T00:10:35.237Z,6.40
2022-08-17T00:12:41.444Z,6.57
2022-08-17T00:13:20.501Z,5.93
2022-08-17T00:14:24.402Z,5.22
2022-08-17T00:15:28.422Z,5.00
2022-08-17T00:16:56.375Z,5.25
2022-08-17T00:18:01.294Z,5.00
2022-08-17T00:19:10.526Z,6.35
2022-08-17T00:20:14.894Z,6.25
2022-08-17T00:21:23.879Z,5.50
2022-08-17T00:22:33.993Z,5.68
2022-08-17T00:23:49.060Z,5.68
2022-08-17T00:24:54.508Z,6.30
2022-08-17T00:25:58.987Z,5.75
2022-08-17T00:27:03.620Z,5.35
2022-08-17T00:28:08.209Z,5.47
2022-08-17T00:29:14.931Z,6.70
2022-08-17T00:30:24.192Z,5.50
2022-08-17T00:31:29.008Z,5.38
2022-08-17T00:33:14.351Z,5.50
2022-08-17T00:34:12.452Z,5.53
2022-08-17T00:35:19.617Z,5.60
2022-08-17T00:36:24.377Z,6.50
2022-08-17T00:37:28.449Z,6.43
2022-08-17T00:38:33.965Z,5.72
2022-08-17T00:39:37.938Z,5.72
2022-08-17T00:40:48.164Z,5.43
2022-08-17T00:41:52.381Z,6.28
2022-08-17T00:42:57.666Z,6.28
2022-08-17T00:44:07.162Z,5.85
2022-08-17T00:45:18.659Z,6.10
2022-08-17T00:46:30.843Z,6.63
2022-08-17T00:47:35.644Z,6.20
2022-08-17T00:48:40.735Z,7.78
2022-08-17T00:49:45.126Z,5.82
2022-08-17T00:51:34.194Z,5.13
2022-08-17T00:52:51.724Z,6.28
2022-08-17T00:54:07.809Z,5.63
2022-08-17T00:55:12.378Z,5.88
2022-08-17T00:56:29.100Z,5.38
2022-08-17T00:57:53.368Z,5.40
2022-08-17T00:59:02.699Z,5.03
2022-08-17T01:00:26.899Z,6.40
2022-08-17T01:01:33.175Z,5.95
2022-08-17T01:02:45.114Z,6.60
2022-08-17T01:03:51.982Z,5.78
2022-08-17T01:04:57.827Z,5.88
2022-08-17T01:06:04.682Z,6.13
2022-08-17T01:07:11.445Z,5.22
2022-08-17T01:08:19.993Z,5.80
2022-08-17T01:09:24.424Z,5.85
2022-08-17T01:10:58.765Z,6.15
2022-08-17T01:12:08.124Z,5.93
2022-08-17T01:13:15.159Z,5.22
2022-08-17T01:14:21.767Z,6.05
2022-08-17T01:15:26.493Z,5.30
2022-08-17T01:16:32.845Z,5.30
2022-08-17T01:17:37.944Z,5.55
2022-08-17T01:18:44.322Z,5.97
2022-08-17T01:19:48.334Z,5.28
2022-08-17T01:20:57.554Z,5.53
2022-08-17T01:22:13.008Z,5.90
2022-08-17T01:23:21.472Z,5.35
2022-08-17T01:24:25.817Z,6.03
2022-08-17T01:25:31.322Z,5.53
2022-08-17T01:26:38.834Z,5.30
2022-08-17T01:27:43.936Z,5.00
2022-08-17T01:28:53.804Z,6.32
2022-08-17T01:30:56.642Z,4.82
2022-08-17T01:31:40.312Z,5.63
2022-08-17T01:32:44.129Z,4.57
2022-08-17T01:33:47.902Z,5.35
2022-08-17T01:34:54.296Z,5.93
2022-08-17T01:36:00.683Z,5.68
2022-08-17T01:37:05.113Z,5.15
2022-08-17T01:38:09.697Z,5.90
2022-08-17T01:39:28.017Z,5.68
2022-08-17T01:40:57.683Z,5.30
2022-08-17T01:42:19.375Z,6.18
2022-08-17T01:43:39.942Z,6.25
2022-08-17T01:44:43.977Z,5.15
2022-08-17T01:46:03.864Z,5.90
2022-08-17T01:47:08.341Z,5.63
2022-08-17T01:48:13.395Z,6.68
2022-08-17T01:49:17.258Z,5.22
2022-08-17T01:50:28.184Z,6.35
2022-08-17T01:51:33.296Z,6.30
2022-08-17T01:52:37.557Z,5.97
2022-08-17T01:53:47.944Z,6.43
2022-08-17T01:54:53.556Z,6.20
2022-08-17T01:56:08.313Z,5.70
2022-08-17T01:57:12.546Z,6.18
2022-08-17T01:58:16.859Z,6.53
2022-08-17T01:59:21.441Z,6.15
2022-08-17T02:00:27.856Z,6.03
2022-08-17T02:01:53.087Z,6.00
2022-08-17T02:02:57.196Z,5.88
2022-08-17T02:04:02.880Z,5.97
2022-08-17T02:05:09.599Z,6.07
2022-08-17T02:06:28.242Z,5.97
2022-08-17T02:07:32.170Z,6.68
2022-08-17T02:09:01.629Z,5.90
2022-08-17T02:10:16.709Z,6.68
2022-08-17T02:11:24.991Z,6.18
2022-08-17T02:12:37.793Z,5.88
2022-08-17T02:13:45.887Z,6.07
2022-08-17T02:14:50.524Z,6.30
2022-08-17T02:15:54.599Z,6.25
2022-08-17T02:16:58.664Z,6.28
2022-08-17T02:18:05.706Z,5.65
2022-08-17T02:19:17.079Z,6.13
2022-08-17T02:20:41.684Z,5.53
2022-08-17T02:21:49.526Z,6.22
2022-08-17T02:22:53.490Z,6.57
2022-08-17T02:23:57.627Z,5.95
2022-08-17T02:25:02.844Z,6.68
2022-08-17T02:26:08.523Z,6.60
2022-08-17T02:27:27.862Z,6.75
2022-08-17T02:28:31.778Z,6.55
2022-08-17T02:29:35.877Z,5.80
2022-08-17T02:30:59.096Z,6.47
2022-08-17T02:32:06.177Z,5.95
2022-08-17T02:33:10.078Z,5.47
2022-08-17T02:34:15.134Z,6.43
2022-08-17T02:35:19.417Z,6.68
2022-08-17T02:36:27.501Z,6.68
2022-08-17T02:37:32.937Z,6.35
2022-08-17T02:38:40.205Z,6.25
2022-08-17T02:39:46.227Z,7.38
2022-08-17T02:40:50.442Z,6.32
2022-08-17T02:42:03.407Z,7.43
2022-08-17T02:43:10.349Z,6.13
2022-08-17T02:44:14.218Z,6.90
2022-08-17T02:45:38.113Z,8.02
2022-08-17T02:46:41.921Z,7.03
2022-08-17T02:47:47.054Z,7.13
2022-08-17T02:48:50.911Z,7.07
2022-08-17T02:49:56.008Z,6.43
2022-08-17T02:51:01.661Z,6.60
2022-08-17T02:52:08.380Z,6.22
2022-08-17T02:53:12.160Z,6.43
2022-08-17T02:54:40.592Z,6.38
2022-08-17T02:55:42.992Z,6.35
2022-08-17T02:56:46.689Z,5.75
2022-08-17T02:57:52.185Z,5.20
2022-08-17T02:58:56.230Z,6.82
2022-08-17T03:00:00.034Z,5.78
2022-08-17T03:01:10.692Z,6.72
2022-08-17T03:02:15.695Z,4.90
2022-08-17T03:03:19.631Z,5.03
2022-08-17T03:04:23.610Z,6.07
2022-08-17T03:05:30.591Z,5.93
2022-08-17T03:06:34.478Z,6.03
2022-08-17T03:07:39.312Z,6.18
2022-08-17T03:08:43.363Z,5.35
2022-08-17T03:09:47.636Z,5.13
2022-08-17T03:10:51.556Z,6.25
2022-08-17T03:11:56.038Z,5.88
2022-08-17T03:13:00.660Z,6.07
2022-08-17T03:14:04.742Z,6.13
2022-08-17T03:15:23.065Z,6.55
2022-08-17T03:16:26.956Z,7.25
2022-08-17T03:17:30.983Z,5.53
2022-08-17T03:18:35.378Z,6.10
2022-08-17T03:19:39.630Z,5.47
2022-08-17T03:20:47.208Z,6.80
2022-08-17T03:21:54.890Z,6.43
2022-08-17T03:23:01.773Z,5.90
2022-08-17T03:24:09.022Z,5.35
2022-08-17T03:25:24.506Z,5.78
2022-08-17T03:26:29.778Z,4.88
2022-08-17T03:27:33.923Z,6.85
2022-08-17T03:28:40.972Z,5.90
2022-08-17T03:29:45.177Z,5.25
2022-08-17T03:30:49.774Z,5.63
2022-08-17T03:31:53.697Z,6.47
2022-08-17T03:33:01.924Z,6.97
2022-08-17T03:34:06.060Z,5.15
2022-08-17T03:35:12.491Z,6.20
2022-08-17T03:36:16.806Z,6.05
2022-08-17T03:37:20.628Z,5.28
2022-08-17T03:38:25.638Z,6.20
2022-08-17T03:39:29.499Z,5.60
2022-08-17T03:40:55.212Z,6.13
2022-08-17T03:42:32.293Z,5.68
2022-08-17T03:43:36.779Z,5.60
2022-08-17T03:44:41.337Z,5.03
2022-08-17T03:46:04.050Z,4.95
2022-08-17T03:47:28.580Z,5.85
2022-08-17T03:48:51.065Z,5.47
2022-08-17T03:50:13.470Z,5.65
2022-08-17T03:51:43.315Z,6.88
2022-08-17T03:53:09.487Z,6.00
2022-08-17T03:54:31.937Z,5.57
2022-08-17T03:55:56.556Z,5.82
2022-08-17T03:57:05.568Z,6.60
2022-08-17T03:58:09.659Z,5.97
2022-08-17T03:59:23.024Z,5.18
2022-08-17T04:00:27.867Z,5.55
2022-08-17T04:01:32.250Z,5.20
2022-08-17T04:02:36.704Z,5.60
2022-08-17T04:03:40.590Z,5.50
2022-08-17T04:04:44.853Z,5.32
2022-08-17T04:05:48.660Z,5.68
2022-08-17T04:06:52.731Z,6.00
2022-08-17T04:07:57.248Z,6.28
2022-08-17T04:09:01.365Z,5.38
2022-08-17T04:10:06.278Z,5.53
2022-08-17T04:11:10.649Z,5.93
2022-08-17T04:12:18.958Z,5.40
2022-08-17T04:13:24.066Z,6.20
2022-08-17T04:14:31.311Z,5.38
2022-08-17T04:15:35.155Z,5.45
2022-08-17T04:16:39.193Z,4.38
2022-08-17T04:17:44.434Z,5.25
2022-08-17T04:18:48.183Z,6.07
2022-08-17T04:19:53.408Z,5.78
2022-08-17T04:20:57.837Z,6.22
2022-08-17T04:22:05.715Z,7.32
2022-08-17T04:23:15.857Z,6.05
2022-08-17T04:24:21.182Z,5.30
2022-08-17T04:25:27.603Z,5.70
2022-08-17T04:26:52.135Z,6.15
2022-08-17T04:27:57.604Z,5.22
2022-08-17T04:29:01.483Z,6.00
2022-08-17T04:30:10.071Z,6.18
2022-08-17T04:31:15.950Z,6.30
2022-08-17T04:32:58.407Z,5.93
2022-08-17T04:33:44.595Z,6.68
2022-08-17T04:34:49.055Z,6.25
2022-08-17T04:35:58.507Z,5.47
2022-08-17T04:37:02.293Z,5.60
2022-08-17T04:38:12.163Z,5.40
2022-08-17T04:39:16.133Z,6.05
2022-08-17T04:40:41.830Z,6.38
2022-08-17T04:42:04.413Z,6.63
2022-08-17T04:43:18.787Z,6.20
2022-08-17T04:44:28.339Z,6.95
2022-08-17T04:45:55.496Z,5.80
2022-08-17T04:47:00.767Z,5.80
2022-08-17T04:48:04.604Z,6.03
2022-08-17T04:49:11.748Z,6.88
2022-08-17T04:50:15.974Z,5.95
2022-08-17T04:51:31.306Z,5.45
2022-08-17T04:52:46.491Z,6.30
2022-08-17T04:53:55.483Z,6.10
2022-08-17T04:55:02.966Z,6.80
2022-08-17T04:56:07.584Z,6.65
2022-08-17T04:57:16.249Z,6.22
2022-08-17T04:58:21.655Z,6.22
2022-08-17T04:59:25.612Z,6.15
2022-08-17T05:00:30.027Z,6.15
2022-08-17T05:01:38.372Z,6.18
2022-08-17T05:02:49.616Z,6.85
2022-08-17T05:03:59.357Z,6.60
2022-08-17T05:05:03.446Z,6.13
2022-08-17T05:06:12.692Z,6.20
2022-08-17T05:07:21.117Z,6.18
2022-08-17T05:08:27.942Z,6.53
2022-08-17T05:09:31.841Z,5.95
2022-08-17T05:10:39.219Z,7.88
2022-08-17T05:12:01.514Z,5.68
2022-08-17T05:13:11.439Z,5.88
2022-08-17T05:14:16.365Z,6.30
2022-08-17T05:15:21.621Z,6.55
2022-08-17T05:16:29.621Z,5.22
2022-08-17T05:17:33.424Z,6.40
2022-08-17T05:18:39.034Z,6.05
2022-08-17T05:19:43.028Z,6.00
2022-08-17T05:20:47.439Z,5.80
2022-08-17T05:21:52.908Z,6.22
2022-08-17T05:23:01.754Z,7.10
2022-08-17T05:24:06.072Z,6.72
2022-08-17T05:25:42.354Z,6.25
2022-08-17T05:26:51.595Z,5.57
2022-08-17T05:27:57.681Z,5.45
2022-08-17T05:29:03.116Z,5.43
2022-08-17T05:30:09.582Z,6.78
2022-08-17T05:31:14.891Z,5.60
2022-08-17T05:32:38.034Z,5.82
2022-08-17T05:33:46.294Z,5.63
2022-08-17T05:34:50.452Z,7.15
2022-08-17T05:35:57.761Z,6.97
2022-08-17T05:37:01.807Z,6.30
2022-08-17T05:38:08.220Z,5.65
2022-08-17T05:39:16.332Z,7.50
2022-08-17T05:40:23.475Z,5.88
2022-08-17T05:41:27.751Z,5.80
2022-08-17T05:42:31.662Z,6.03
2022-08-17T05:43:40.131Z,7.32
2022-08-17T05:44:44.080Z,5.07
2022-08-17T05:46:03.018Z,5.97
2022-08-17T05:47:07.335Z,6.25
2022-08-17T05:48:14.494Z,6.57
2022-08-17T05:49:27.859Z,6.25
2022-08-17T05:50:57.333Z,6.00
2022-08-17T05:52:27.342Z,6.95
2022-08-17T05:54:33.284Z,5.93
2022-08-17T05:56:56.571Z,5.30
2022-08-17T05:58:17.404Z,5.63
2022-08-17T05:59:36.402Z,6.13
2022-08-17T06:01:10.455Z,5.75
2022-08-17T06:02:23.516Z,5.85
2022-08-17T06:04:03.225Z,4.80
2022-08-17T06:05:29.700Z,6.68
2022-08-17T06:07:09.821Z,5.68
2022-08-17T06:08:54.157Z,6.38
2022-08-17T06:10:43.685Z,6.63
2022-08-17T06:12:29.008Z,5.60
2022-08-17T06:14:13.637Z,5.57
2022-08-17T06:15:38.884Z,5.70
2022-08-17T06:16:49.657Z,6.30
2022-08-17T06:18:00.115Z,6.30
2022-08-17T06:19:16.328Z,5.80
2022-08-17T06:20:20.599Z,6.07
2022-08-17T06:21:30.540Z,4.85
2022-08-17T06:22:49.761Z,6.60
2022-08-17T06:24:31.671Z,5.80
2022-08-17T06:25:57.849Z,5.88
2022-08-17T06:27:37.536Z,6.03
2022-08-17T06:29:08.233Z,6.13
2022-08-17T06:30:28.646Z,5.75
2022-08-17T06:31:52.577Z,6.03
2022-08-17T06:33:14.872Z,6.35
2022-08-17T06:34:21.970Z,6.63
2022-08-17T06:35:50.856Z,8.23
2022-08-17T06:36:58.381Z,8.10
2022-08-17T06:43:02.173Z,6.28
2022-08-17T06:44:50.019Z,5.68
2022-08-17T06:45:49.544Z,6.45
2022-08-17T06:47:06.253Z,7.60
2022-08-17T06:48:24.958Z,7.72
2022-08-17T06:50:16.970Z,7.38
2022-08-17T06:51:38.079Z,7.20
2022-08-17T06:53:00.952Z,7.00
2022-08-17T06:54:27.867Z,7.45
2022-08-17T06:55:48.285Z,5.78
2022-08-17T06:57:02.819Z,6.30
2022-08-17T06:58:16.351Z,6.68
2022-08-17T06:59:55.013Z,5.88
2022-08-17T07:00:59.196Z,5.65
2022-08-17T07:02:09.956Z,6.13
2022-08-17T07:03:57.510Z,6.10
2022-08-17T07:05:02.322Z,6.85
2022-08-17T07:06:16.989Z,5.50
2022-08-17T07:07:41.363Z,6.30
2022-08-17T07:09:07.411Z,6.00
2022-08-17T07:10:14.671Z,5.47
2022-08-17T07:11:32.677Z,5.55
2022-08-17T07:12:43.535Z,5.93
2022-08-17T07:14:29.940Z,6.53
2022-08-17T07:15:42.971Z,5.82
2022-08-17T07:16:53.811Z,5.30
2022-08-17T07:18:00.788Z,5.25
2022-08-17T07:19:07.475Z,5.63
2022-08-17T07:20:22.588Z,5.15
2022-08-17T07:21:51.891Z,6.43
2022-08-17T07:23:16.075Z,5.10
2022-08-17T07:24:51.125Z,5.40
2022-08-17T07:26:07.011Z,5.68
2022-08-17T07:27:22.488Z,5.90
2022-08-17T07:28:30.129Z,5.80
2022-08-17T07:29:47.245Z,6.07
2022-08-17T07:30:54.858Z,4.38
2022-08-17T07:31:59.475Z,5.55
2022-08-17T07:33:14.403Z,5.43
2022-08-17T07:34:18.720Z,5.25
2022-08-17T07:35:41.471Z,5.72
2022-08-17T07:37:01.611Z,5.00
2022-08-17T07:38:31.088Z,4.88
2022-08-17T07:39:35.150Z,6.10
2022-08-17T07:41:03.776Z,5.47
2022-08-17T07:42:11.124Z,4.55
2022-08-17T07:43:23.759Z,5.22
2022-08-17T07:44:27.982Z,5.57
2022-08-17T07:45:54.226Z,5.97
2022-08-17T07:47:17.459Z,5.43
2022-08-17T07:48:27.413Z,5.43
2022-08-17T07:49:41.143Z,5.82
2022-08-17T07:50:49.291Z,5.43
2022-08-17T07:52:00.061Z,5.57
2022-08-17T07:53:26.203Z,5.28
2022-08-17T07:54:38.915Z,5.15
2022-08-17T07:55:43.284Z,4.70
2022-08-17T07:56:53.898Z,5.43
2022-08-17T07:58:00.592Z,6.22
2022-08-17T07:59:33.691Z,4.38
2022-08-17T08:00:37.940Z,4.80
2022-08-17T08:01:48.946Z,5.38
2022-08-17T08:03:28.582Z,5.63
2022-08-17T08:05:02.162Z,4.85
2022-08-17T08:06:26.505Z,4.80
2022-08-17T08:07:38.903Z,5.00
2022-08-17T08:08:50.705Z,4.97
2022-08-17T08:10:25.423Z,5.43
2022-08-17T08:11:35.658Z,5.57
2022-08-17T08:12:39.584Z,4.70
2022-08-17T08:13:45.980Z,4.15
2022-08-17T08:14:58.635Z,5.07
2022-08-17T08:16:29.837Z,5.38
2022-08-17T08:17:47.128Z,4.65
2022-08-17T08:18:57.823Z,5.57
2022-08-17T08:20:34.958Z,4.90
2022-08-17T08:21:51.596Z,5.28
2022-08-17T08:23:10.806Z,4.63
2022-08-17T08:24:55.888Z,4.63
2022-08-17T08:26:18.387Z,5.00
2022-08-17T08:27:50.831Z,3.95
2022-08-17T08:29:33.763Z,5.47
2022-08-17T08:30:48.902Z,4.43
2022-08-17T08:32:14.304Z,4.47
2022-08-17T08:33:42.619Z,3.92
2022-08-17T08:35:04.112Z,4.63
2022-08-17T08:36:59.284Z,4.78
2022-08-17T08:38:29.616Z,5.00
2022-08-17T08:40:30.434Z,5.47
2022-08-17T08:42:18.384Z,5.30
2022-08-17T08:43:55.058Z,4.28
2022-08-17T08:45:25.160Z,4.22
2022-08-17T08:47:05.170Z,4.95
2022-08-17T08:48:56.280Z,4.82
2022-08-17T08:50:30.244Z,4.82
2022-08-17T08:51:57.593Z,4.38
2022-08-17T08:53:21.632Z,5.43
2022-08-17T08:54:52.435Z,5.15
2022-08-17T08:56:37.480Z,5.28
2022-08-17T08:58:01.054Z,4.90
2022-08-17T08:59:23.462Z,4.50
2022-08-17T09:00:29.548Z,4.82
2022-08-17T09:02:16.339Z,4.80
2022-08-17T09:04:19.945Z,4.88
2022-08-17T09:05:36.854Z,4.25
2022-08-17T09:07:41.564Z,4.43
2022-08-17T09:09:07.618Z,4.35
2022-08-17T09:10:17.215Z,4.93
2022-08-17T09:12:01.453Z,6.07
2022-08-17T09:13:39.466Z,5.35
2022-08-17T09:15:09.562Z,5.30
2022-08-17T09:16:30.084Z,4.57
2022-08-17T09:17:40.154Z,5.28
2022-08-17T09:19:02.178Z,5.28
2022-08-17T09:20:27.147Z,5.03
2022-08-17T09:21:57.645Z,5.03
2022-08-17T09:23:42.396Z,5.57
2022-08-17T09:25:07.533Z,4.88
2022-08-17T09:26:35.340Z,4.43
2022-08-17T09:27:54.064Z,5.53
2022-08-17T09:29:07.217Z,5.13
2022-08-17T09:30:16.469Z,5.20
2022-08-17T09:31:49.133Z,5.43
2022-08-17T09:33:08.622Z,5.05
2022-08-17T09:34:28.149Z,5.03
2022-08-17T09:35:48.378Z,4.57
2022-08-17T09:37:20.621Z,4.80
2022-08-17T09:38:54.792Z,6.32
2022-08-17T09:40:30.110Z,5.13
2022-08-17T09:41:59.497Z,6.05
2022-08-17T09:43:54.208Z,4.68
2022-08-17T09:45:43.178Z,5.43
2022-08-17T09:47:26.696Z,5.18
2022-08-17T09:48:55.593Z,5.47
2022-08-17T09:51:05.262Z,5.35
2022-08-17T09:52:08.979Z,5.88
2022-08-17T09:53:13.878Z,5.82
2022-08-17T09:54:40.858Z,5.05
2022-08-17T09:56:34.284Z,5.43
2022-08-17T09:58:13.040Z,5.22
2022-08-17T10:00:25.869Z,4.45
2022-08-17T10:02:15.497Z,4.75
2022-08-17T10:04:19.985Z,4.30
2022-08-17T10:05:56.971Z,4.82
2022-08-17T10:07:46.861Z,4.60
2022-08-17T10:09:19.251Z,5.22
2022-08-17T10:11:00.384Z,4.78
2022-08-17T10:12:35.786Z,4.97
2022-08-17T10:14:37.015Z,4.45
2022-08-17T10:15:50.043Z,4.60
2022-08-17T10:17:30.013Z,4.90
2022-08-17T10:18:57.095Z,5.57
2022-08-17T10:20:31.140Z,5.07
2022-08-17T10:22:01.214Z,4.80
2022-08-17T10:23:36.884Z,4.95
2022-08-17T10:25:21.360Z,4.75
2022-08-17T10:26:55.409Z,3.83
2022-08-17T10:28:09.025Z,4.40
2022-08-17T10:29:47.255Z,4.78
2022-08-17T10:31:34.126Z,4.53
2022-08-17T10:32:48.539Z,5.50
2022-08-17T10:34:29.158Z,4.72
2022-08-17T10:35:51.597Z,4.68
2022-08-17T10:37:20.395Z,4.40
2022-08-17T10:38:47.062Z,4.43
2022-08-17T10:40:24.730Z,4.65
2022-08-17T10:41:45.623Z,3.65
2022-08-17T10:43:01.020Z,4.90
2022-08-17T10:44:51.801Z,4.90
2022-08-17T10:46:54.544Z,4.03
2022-08-17T10:48:07.695Z,3.63
2022-08-17T10:49:17.518Z,3.97
2022-08-17T10:51:00.160Z,4.00
2022-08-17T10:52:26.244Z,3.97
2022-08-17T10:53:32.821Z,3.72
2022-08-17T10:54:41.939Z,3.70
2022-08-17T10:56:14.436Z,3.97
2022-08-17T10:57:47.523Z,4.47
2022-08-17T10:59:01.264Z,4.57
2022-08-17T11:00:16.075Z,4.10
2022-08-17T11:01:38.447Z,4.55
2022-08-17T11:02:54.562Z,4.03
2022-08-17T11:04:04.828Z,3.40
2022-08-17T11:05:32.770Z,3.50
2022-08-17T11:06:49.580Z,3.50
2022-08-17T11:08:26.983Z,3.40
2022-08-17T11:10:24.003Z,4.22
2022-08-17T11:11:54.446Z,4.05
2022-08-17T11:13:30.503Z,4.30
2022-08-17T11:14:49.435Z,4.00
2022-08-17T11:16:51.497Z,3.60
2022-08-17T11:18:45.762Z,3.88
2022-08-17T11:20:09.744Z,3.28
2022-08-17T11:21:17.633Z,3.58
2022-08-17T11:22:39.683Z,3.75
2022-08-17T11:23:57.712Z,3.33
2022-08-17T11:25:21.584Z,3.80
2022-08-17T11:26:39.173Z,4.07
2022-08-17T11:27:47.385Z,3.40
2022-08-17T11:28:59.013Z,3.72
2022-08-17T11:30:13.318Z,4.18
2022-08-17T11:31:44.633Z,4.05
2022-08-17T11:32:53.057Z,4.47
2022-08-17T11:34:06.929Z,3.85
2022-08-17T11:35:31.311Z,3.50
2022-08-17T11:37:04.301Z,4.40
2022-08-17T11:38:20.446Z,2.95
2022-08-17T11:39:39.542Z,4.30
2022-08-17T11:41:31.050Z,3.50
2022-08-17T11:43:10.680Z,3.40
2022-08-17T11:44:56.262Z,4.32
2022-08-17T11:46:17.634Z,3.70
2022-08-17T11:48:15.873Z,3.78
2022-08-17T11:50:22.518Z,3.72
2022-08-17T11:52:14.852Z,3.28
2022-08-17T11:53:40.391Z,3.30
2022-08-17T11:54:49.216Z,3.17
2022-08-17T11:55:52.986Z,3.67
2022-08-17T11:57:00.385Z,4.25
2022-08-17T11:58:27.382Z,3.78
2022-08-17T11:59:36.134Z,3.30
2022-08-17T12:00:46.474Z,3.92
2022-08-17T12:01:57.360Z,3.75
2022-08-17T12:03:42.480Z,3.60
2022-08-17T12:05:12.976Z,4.07
2022-08-17T12:06:49.307Z,3.20
2022-08-17T12:08:18.638Z,3.78
2022-08-17T12:09:28.868Z,3.83
2022-08-17T12:10:40.174Z,3.58
2022-08-17T12:12:20.565Z,3.13
2022-08-17T12:13:30.515Z,3.45
2022-08-17T12:15:11.084Z,3.50
2022-08-17T12:16:21.156Z,3.40
2022-08-17T12:17:40.389Z,3.42
2022-08-17T12:19:02.618Z,2.97
2022-08-17T12:20:14.747Z,3.33
2022-08-17T12:21:40.968Z,3.45
2022-08-17T12:23:21.018Z,3.13
2022-08-17T12:24:59.878Z,3.67
2022-08-17T12:26:21.612Z,3.47
2022-08-17T12:27:50.748Z,3.35
2022-08-17T12:29:18.338Z,3.33
2022-08-17T12:30:39.233Z,2.92
2022-08-17T12:31:48.095Z,3.70
2022-08-17T12:32:53.709Z,2.70
2022-08-17T12:34:00.508Z,3.63
2022-08-17T12:35:39.145Z,3.85
2022-08-17T12:36:43.634Z,3.20
2022-08-17T12:37:50.667Z,3.22
2022-08-17T12:39:13.681Z,3.65
2022-08-17T12:40:24.550Z,3.95
2022-08-17T12:41:42.018Z,3.55
2022-08-17T12:43:08.073Z,3.28
2022-08-17T12:44:12.399Z,3.20
2022-08-17T12:45:36.999Z,3.33
2022-08-17T12:47:04.890Z,3.50
2022-08-17T12:48:22.191Z,3.38
2022-08-17T12:49:36.444Z,2.80
2022-08-17T12:50:46.297Z,2.53
2022-08-17T12:52:00.554Z,3.05
2022-08-17T12:53:25.226Z,3.15
2022-08-17T12:54:48.660Z,3.33
2022-08-17T12:55:55.262Z,3.58
2022-08-17T12:57:12.217Z,4.13
2022-08-17T12:58:25.419Z,2.67
2022-08-17T12:59:33.315Z,2.92
2022-08-17T13:00:47.607Z,3.33
2022-08-17T13:01:52.125Z,3.17
2022-08-17T13:03:09.747Z,2.80
2022-08-17T13:04:17.960Z,3.15
2022-08-17T13:05:40.428Z,2.88
2022-08-17T13:06:59.837Z,5.03
2022-08-17T13:08:31.355Z,3.55
2022-08-17T13:09:40.555Z,3.45
2022-08-17T13:10:58.615Z,2.75
2022-08-17T13:12:02.551Z,4.55
2022-08-17T13:13:32.535Z,4.45
2022-08-17T13:14:36.628Z,3.25
2022-08-17T13:15:55.997Z,3.58
2022-08-17T13:17:09.682Z,3.08
2022-08-17T13:18:51.125Z,2.95
2022-08-17T13:19:55.825Z,3.40
2022-08-17T13:21:01.187Z,3.30
2022-08-17T13:22:12.957Z,3.08
2022-08-17T13:23:21.557Z,3.00
2022-08-17T13:24:38.032Z,3.13
2022-08-17T13:25:43.096Z,3.35
2022-08-17T13:27:01.533Z,3.38
2022-08-17T13:28:35.505Z,3.42
2022-08-17T13:29:51.516Z,2.97
2022-08-17T13:31:30.433Z,2.83
2022-08-17T13:32:44.107Z,3.08
2022-08-17T13:33:48.849Z,3.42
2022-08-17T13:35:12.090Z,3.22
2022-08-17T13:36:32.173Z,2.97
2022-08-17T13:37:37.712Z,3.33
2022-08-17T13:38:49.834Z,3.63
2022-08-17T13:40:02.570Z,3.22
2022-08-17T13:41:07.771Z,3.28
2022-08-17T13:42:52.836Z,2.78
2022-08-17T13:43:57.576Z,2.80
2022-08-17T13:45:02.090Z,3.15
2022-08-17T13:46:31.850Z,3.95
2022-08-17T13:47:36.208Z,2.97
2022-08-17T13:48:40.548Z,3.67
2022-08-17T13:49:49.283Z,3.20
2022-08-17T13:50:58.712Z,3.58
2022-08-17T13:52:03.003Z,3.20
2022-08-17T13:53:36.920Z,3.53
2022-08-17T13:54:41.712Z,3.58
2022-08-17T13:55:54.356Z,3.03
2022-08-17T13:57:02.539Z,3.13
2022-08-17T13:58:07.521Z,2.78
2022-08-17T13:59:54.929Z,3.05
2022-08-17T14:00:51.954Z,3.70
2022-08-17T14:01:57.191Z,3.38
2022-08-17T14:03:04.924Z,2.97
2022-08-17T14:04:23.673Z,3.63
2022-08-17T14:05:31.048Z,3.20
2022-08-17T14:07:23.427Z,3.38
2022-08-17T14:08:30.977Z,2.95
2022-08-17T14:09:50.391Z,2.70
2022-08-17T14:10:58.843Z,2.97
2022-08-17T14:12:07.059Z,3.20
2022-08-17T14:13:13.514Z,3.33
2022-08-17T14:14:18.861Z,3.15
2022-08-17T14:15:54.779Z,3.25
2022-08-17T14:16:55.413Z,2.75
2022-08-17T14:17:59.544Z,3.20
2022-08-17T14:19:04.389Z,3.13
2022-08-17T14:20:13.703Z,3.08
2022-08-17T14:21:18.065Z,3.42
2022-08-17T14:22:29.728Z,3.10
2022-08-17T14:23:35.531Z,2.53
2022-08-17T14:24:45.041Z,3.20
2022-08-17T14:25:49.387Z,3.85
2022-08-17T14:26:54.298Z,3.42
2022-08-17T14:27:58.583Z,3.47
2022-08-17T14:29:02.861Z,3.42
2022-08-17T14:30:11.824Z,2.83
2022-08-17T14:31:16.545Z,4.00
2022-08-17T14:32:25.993Z,3.42
2022-08-17T14:33:30.072Z,3.47
2022-08-17T14:34:34.080Z,3.30
2022-08-17T14:35:38.122Z,3.67
2022-08-17T14:36:48.152Z,3.05
2022-08-17T14:37:53.540Z,3.67
2022-08-17T14:38:57.858Z,3.42
2022-08-17T14:40:08.472Z,4.30
2022-08-17T14:41:12.942Z,3.72
2022-08-17T14:42:18.672Z,3.42
2022-08-17T14:43:22.587Z,3.42
2022-08-17T14:44:27.716Z,3.13
2022-08-17T14:45:33.489Z,3.00
2022-08-17T14:46:37.762Z,3.70
2022-08-17T14:47:42.472Z,3.13
2022-08-17T14:48:47.274Z,2.85
2022-08-17T14:49:51.449Z,2.88
2022-08-17T14:50:56.922Z,3.63
2022-08-17T14:52:02.157Z,3.28
2022-08-17T14:53:09.416Z,3.08
2022-08-17T14:54:33.013Z,3.20
2022-08-17T14:55:40.719Z,3.03
2022-08-17T14:56:46.963Z,3.28
2022-08-17T14:57:59.113Z,2.45
2022-08-17T14:59:03.216Z,3.53
2022-08-17T15:00:11.336Z,3.00
2022-08-17T15:01:16.876Z,3.33
2022-08-17T15:02:22.501Z,3.55
2022-08-17T15:03:34.778Z,2.65
2022-08-17T15:04:44.883Z,3.25
2022-08-17T15:05:50.017Z,3.05
2022-08-17T15:06:54.286Z,3.45
2022-08-17T15:08:00.031Z,3.13
2022-08-17T15:09:04.562Z,3.95
2022-08-17T15:10:11.070Z,3.38
2022-08-17T15:11:16.133Z,3.20
2022-08-17T15:12:26.432Z,3.38
2022-08-17T15:13:37.161Z,3.63
2022-08-17T15:14:57.283Z,3.10
2022-08-17T15:16:01.686Z,3.28
2022-08-17T15:17:05.838Z,3.38
2022-08-17T15:18:09.638Z,3.15
2022-08-17T15:19:13.423Z,3.22
2022-08-17T15:20:28.213Z,3.63
2022-08-17T15:21:35.010Z,3.25
2022-08-17T15:22:44.032Z,4.18
2022-08-17T15:23:47.984Z,3.28
2022-08-17T15:24:51.878Z,3.65
2022-08-17T15:25:55.932Z,3.20
2022-08-17T15:26:59.729Z,4.75
2022-08-17T15:28:04.366Z,3.03
2022-08-17T15:29:10.617Z,3.35
2022-08-17T15:30:16.266Z,3.50
2022-08-17T15:31:20.387Z,3.42
2022-08-17T15:32:39.858Z,3.65
2022-08-17T15:33:44.719Z,3.38
2022-08-17T15:34:49.658Z,3.25
2022-08-17T15:35:54.354Z,2.78
2022-08-17T15:36:58.144Z,3.35
2022-08-17T15:38:11.214Z,2.90
2022-08-17T15:39:19.257Z,3.28
2022-08-17T15:40:23.728Z,2.83
2022-08-17T15:41:28.604Z,3.33
2022-08-17T15:42:33.151Z,3.50
2022-08-17T15:43:37.763Z,3.33
2022-08-17T15:44:41.638Z,3.05
2022-08-17T15:46:00.003Z,3.90
2022-08-17T15:47:04.661Z,3.67
2022-08-17T15:48:09.498Z,3.22
2022-08-17T15:49:14.047Z,3.55
2022-08-17T15:50:18.050Z,2.65
2022-08-17T15:51:33.047Z,3.13
2022-08-17T15:52:40.625Z,2.65
2022-08-17T15:53:49.586Z,3.10
2022-08-17T15:55:01.679Z,3.22
2022-08-17T15:56:06.686Z,2.80
2022-08-17T15:57:10.643Z,2.47
2022-08-17T15:58:15.004Z,2.58
2022-08-17T15:59:23.447Z,2.60
2022-08-17T16:00:30.195Z,3.00
2022-08-17T16:02:21.523Z,3.03
2022-08-17T16:03:44.959Z,3.22
2022-08-17T16:04:29.884Z,3.40
2022-08-17T16:05:35.902Z,3.40
2022-08-17T16:06:41.495Z,3.60
2022-08-17T16:07:45.279Z,3.50
2022-08-17T16:08:50.664Z,3.50
2022-08-17T16:09:59.704Z,3.35
2022-08-17T16:11:04.545Z,3.25
2022-08-17T16:12:21.462Z,3.70
2022-08-17T16:13:28.021Z,3.95
2022-08-17T16:14:33.692Z,3.50
2022-08-17T16:15:39.087Z,3.83
2022-08-17T16:16:43.084Z,4.05
2022-08-17T16:17:46.930Z,3.42
2022-08-17T16:18:54.496Z,3.38
2022-08-17T16:20:04.952Z,3.97
2022-08-17T16:21:27.129Z,4.32
2022-08-17T16:22:36.562Z,4.32
2022-08-17T16:23:40.531Z,3.55
2022-08-17T16:24:57.010Z,3.75
2022-08-17T16:26:01.600Z,3.50
2022-08-17T16:27:12.491Z,3.88
2022-08-17T16:28:18.210Z,3.80
2022-08-17T16:29:23.128Z,4.55
2022-08-17T16:30:29.344Z,4.13
2022-08-17T16:31:36.146Z,4.18
2022-08-17T16:32:40.529Z,3.65
2022-08-17T16:34:03.887Z,3.83
2022-08-17T16:35:17.594Z,3.95
2022-08-17T16:36:23.632Z,3.85
2022-08-17T16:37:27.993Z,4.18
2022-08-17T16:38:31.767Z,3.58
2022-08-17T16:39:38.575Z,3.53
2022-08-17T16:40:42.864Z,3.90
2022-08-17T16:41:46.974Z,4.00
2022-08-17T16:42:51.773Z,3.60
2022-08-17T16:43:56.665Z,4.20
2022-08-17T16:45:31.842Z,3.20
2022-08-17T16:46:40.423Z,3.53
2022-08-17T16:47:51.003Z,4.35
2022-08-17T16:49:00.800Z,4.18
2022-08-17T16:50:09.168Z,4.00